Time;durP1;ratioP1;P1;durP2;ratioP2;P2;SDS_P1;SDS_P2;PMS_P1;PMS_P2;Temp;Humidity;BMP_temperature;BMP_pressure;BME280_temperature;BME280_humidity;BME280_pressure;Samples;Min_cycle;Max_cycle;Signal;HPM_P1;HPM_P2
2022/02/21 00:01:23;;;;;;;2.95;0.68;;;;;;;3.50;100.00;98644.28;4991207;28;20057;-56
2022/02/21 00:04:07;;;;;;;2.25;0.63;;;;;;;3.49;100.00;98640.78;4983013;28;20196;-60
2022/02/21 00:06:52;;;;;;;3.53;0.82;;;;;;;3.49;100.00;98635.53;4967575;28;20054;-63
2022/02/21 00:09:36;;;;;;;3.45;1.00;;;;;;;3.48;100.00;98640.81;4968933;28;20134;-59
2022/02/21 00:12:22;;;;;;;1.52;0.50;;;;;;;3.48;100.00;98636.44;4975804;28;20096;-59
2022/02/21 00:15:07;;;;;;;2.95;0.80;;;;;;;3.46;100.00;98638.22;4986445;28;20053;-60
2022/02/21 00:17:53;;;;;;;3.60;0.70;;;;;;;3.39;100.00;98630.41;4988190;28;20937;-60
2022/02/21 00:20:38;;;;;;;3.75;0.90;;;;;;;3.37;100.00;98638.28;4971792;28;20053;-60
2022/02/21 00:23:22;;;;;;;4.97;0.85;;;;;;;3.36;100.00;98593.78;4969511;28;20101;-60
2022/02/21 00:26:06;;;;;;;3.42;0.80;;;;;;;3.56;100.00;98618.88;4985281;28;20128;-63
2022/02/21 00:28:51;;;;;;;3.47;0.80;;;;;;;3.34;100.00;98606.03;4980453;28;20194;-59
2022/02/21 00:31:35;;;;;;;3.53;0.88;;;;;;;3.40;100.00;98621.69;4978302;28;20053;-61
2022/02/21 00:34:20;;;;;;;1.90;0.80;;;;;;;3.15;100.00;98626.28;4985855;28;20562;-59
2022/02/21 00:37:05;;;;;;;2.88;0.95;;;;;;;3.16;100.00;98614.03;4984782;28;20056;-59
2022/02/21 00:39:50;;;;;;;8.80;1.00;;;;;;;3.10;100.00;98616.72;4986357;28;20088;-59
2022/02/21 00:42:35;;;;;;;;;;;;;;;3.12;100.00;98625.44;4987244;28;20053;-62
2022/02/21 00:45:19;;;;;;;5.68;1.15;;;;;;;3.15;100.00;98626.28;4967791;28;19944;-60
2022/02/21 00:48:04;;;;;;;5.30;1.17;;;;;;;3.23;100.00;98619.22;4979930;28;20188;-58
2022/02/21 00:50:49;;;;;;;6.35;1.00;;;;;;;3.36;100.00;98623.44;4979870;28;20054;-60
2022/02/21 00:53:35;;;;;;;3.80;1.20;;;;;;;3.60;100.00;98625.81;4997885;28;20068;-59
2022/02/21 00:56:19;;;;;;;9.18;1.45;;;;;;;3.70;100.00;98623.97;4984388;28;20057;-59
2022/02/21 00:59:03;;;;;;;8.85;1.83;;;;;;;3.56;100.00;98618.88;4973553;28;20073;-58
2022/02/21 01:01:48;;;;;;;6.72;1.08;;;;;;;3.48;100.00;98619.88;4970837;28;20057;-59
2022/02/21 01:04:32;;;;;;;3.30;1.10;;;;;;;3.39;100.00;98614.69;4969072;28;20100;-61
2022/02/21 01:07:18;;;;;;;3.28;1.00;;;;;;;3.62;100.00;98629.31;4975090;28;20057;-61
2022/02/21 01:10:04;;;;;;;5.80;1.13;;;;;;;3.48;100.00;98622.47;4979023;28;20058;-60
2022/02/21 01:12:49;;;;;;;3.83;1.10;;;;;;;3.37;100.00;98608.63;4964629;28;20058;-60
2022/02/21 01:15:33;;;;;;;5.93;1.45;;;;;;;3.49;100.00;98614.56;4971833;28;20133;-59
2022/02/21 01:18:18;;;;;;;3.97;1.30;;;;;;;3.54;100.00;98610.19;4989973;28;20108;-59
2022/02/21 01:21:03;;;;;;;4.50;1.90;;;;;;;3.27;100.00;98571.16;4963009;28;20053;-61
2022/02/21 01:23:48;;;;;;;7.43;1.88;;;;;;;3.48;100.00;98607.59;4980732;28;20057;-62
2022/02/21 01:26:32;;;;;;;8.02;1.60;;;;;;;3.46;100.00;98604.16;4979312;28;20061;-60
2022/02/21 01:29:17;;;;;;;7.33;1.83;;;;;;;3.40;100.00;98598.97;4967008;28;20060;-59
2022/02/21 01:32:03;;;;;;;5.93;1.40;;;;;;;3.51;100.00;98596.22;4963688;28;20355;-60
2022/02/21 01:34:47;;;;;;;4.50;1.23;;;;;;;3.20;100.00;98586.94;4985511;28;20061;-60
2022/02/21 01:37:32;;;;;;;5.35;1.25;;;;;;;3.19;100.00;98588.72;4984060;28;20053;-59
2022/02/21 01:40:17;;;;;;;4.90;1.23;;;;;;;3.33;100.00;98573.72;4985682;28;20084;-60
2022/02/21 01:43:02;;;;;;;3.88;0.98;;;;;;;3.27;100.00;98578.16;4970322;28;20142;-56
2022/02/21 01:45:46;;;;;;;4.43;1.10;;;;;;;2.92;100.00;98530.50;4971270;28;20053;-60
2022/02/21 01:48:31;;;;;;;2.95;1.05;;;;;;;3.11;100.00;98594.91;4977485;28;20589;-64
2022/02/21 01:51:15;;;;;;;5.88;1.02;;;;;;;3.08;100.00;98577.47;4956929;28;20050;-60
2022/02/21 01:54:04;;;;;;;3.15;1.08;;;;;;;3.12;100.00;98578.28;4980174;28;20115;-61
2022/02/21 01:56:48;;;;;;;3.47;0.90;;;;;;;2.94;100.00;98547.94;4967525;28;20106;-61
2022/02/21 01:59:34;;;;;;;3.53;1.35;;;;;;;3.12;100.00;98594.00;4981610;28;20089;-59
2022/02/21 02:02:18;;;;;;;8.38;1.30;;;;;;;3.30;100.00;98589.47;4960716;28;20057;-63
2022/02/21 02:05:03;;;;;;;3.78;1.23;;;;;;;3.29;100.00;98579.88;4986084;28;20490;-61
2022/02/21 02:07:48;;;;;;;3.88;0.95;;;;;;;2.98;100.00;98533.06;4971718;28;20081;-58
2022/02/21 02:10:33;;;;;;;3.53;1.10;;;;;;;3.27;100.00;98575.53;4988759;28;20129;-60
2022/02/21 02:13:18;;;;;;;4.00;1.10;;;;;;;3.16;100.00;98577.38;4959502;28;20141;-59
2022/02/21 02:16:03;;;;;;;2.28;0.95;;;;;;;2.89;100.00;98567.19;4988001;28;20135;-59
2022/02/21 02:18:48;;;;;;;3.67;0.98;;;;;;;2.93;100.00;98584.59;4988613;28;20053;-59
2022/02/21 02:21:36;;;;;;;3.15;1.08;;;;;;;2.99;100.00;98574.94;4990665;28;20057;-60
2022/02/21 02:24:23;;;;;;;3.83;1.20;;;;;;;2.95;100.00;98570.63;4974839;28;20053;-61
2022/02/21 02:27:08;;;;;;;3.20;1.33;;;;;;;3.11;100.00;98566.97;4972895;28;20101;-60
2022/02/21 02:29:55;;;;;;;8.00;1.70;;;;;;;3.20;100.00;98571.22;4960553;28;20198;-62
2022/02/21 02:32:40;;;;;;;7.25;2.10;;;;;;;3.09;100.00;98573.13;4988102;28;20569;-60
2022/02/21 02:35:32;;;;;;;4.30;1.58;;;;;;;3.08;100.00;98572.22;4989195;28;20049;-59
2022/02/21 02:38:16;;;;;;;4.13;1.40;;;;;;;2.95;100.00;98556.66;4972438;28;20057;-61
2022/02/21 02:41:01;;;;;;;6.13;1.27;;;;;;;3.02;100.00;98563.56;4986443;28;20120;-63
2022/02/21 02:43:46;;;;;;;4.53;1.40;;;;;;;3.04;100.00;98565.28;4987483;28;20065;-60
2022/02/21 02:46:30;;;;;;;5.43;1.30;;;;;;;2.83;100.00;98570.72;4987246;28;20141;-62
2022/02/21 02:49:15;;;;;;;3.38;1.38;;;;;;;2.67;100.00;98556.03;4988092;28;20073;-61
2022/02/21 02:52:00;;;;;;;4.20;1.40;;;;;;;2.50;100.00;98552.66;4974886;28;20089;-62
2022/02/21 02:54:44;;;;;;;5.15;1.73;;;;;;;2.46;100.00;98561.41;4987483;28;20097;-62
2022/02/21 02:57:29;;;;;;;3.85;1.48;;;;;;;2.31;100.00;98553.72;4969649;28;20185;-61
2022/02/21 03:00:14;;;;;;;2.63;1.30;;;;;;;2.32;100.00;98557.16;4983856;28;20053;-60
2022/02/21 03:02:59;;;;;;;3.20;1.50;;;;;;;2.37;100.00;98552.81;4956574;28;20049;-61
2022/02/21 03:05:43;;;;;;;7.18;1.25;;;;;;;2.34;100.00;98558.03;4966092;28;20129;-60
2022/02/21 03:08:28;;;;;;;3.28;1.40;;;;;;;2.32;100.00;98547.59;4981181;28;20052;-59
2022/02/21 03:11:12;;;;;;;3.72;1.30;;;;;;;2.34;100.00;98560.66;4986659;28;20057;-60
2022/02/21 03:13:59;;;;;;;3.92;1.58;;;;;;;2.38;100.00;98560.59;4987374;28;20061;-63
2022/02/21 03:16:43;;;;;;;2.38;1.20;;;;;;;2.26;100.00;98546.78;4984779;28;20072;-60
2022/02/21 03:19:28;;;;;;;3.47;1.42;;;;;;;2.16;100.00;98529.41;4963846;28;20077;-62
2022/02/21 03:22:12;;;;;;;4.47;1.90;;;;;;;1.95;100.00;98495.56;4979975;28;20085;-60
2022/02/21 03:24:58;;;;;;;3.47;1.75;;;;;;;1.95;100.00;98499.06;4976893;28;20112;-64
2022/02/21 03:27:43;;;;;;;;;;;;;;;2.19;100.00;98543.34;4976956;28;20100;-64
2022/02/21 03:30:28;;;;;;;3.90;1.80;;;;;;;2.10;100.00;98545.97;4969169;28;20377;-58
2022/02/21 03:33:13;;;;;;;4.30;1.90;;;;;;;2.20;100.00;98552.03;4984420;28;20069;-63
2022/02/21 03:35:57;;;;;;;6.78;2.25;;;;;;;2.25;100.00;98526.75;4972328;28;20590;-59
2022/02/21 03:38:43;;;;;;;6.10;2.00;;;;;;;2.34;100.00;98551.03;4978897;28;20435;-61
2022/02/21 03:41:29;;;;;;;5.43;1.52;;;;;;;2.25;100.00;98534.59;4983419;28;20096;-60
2022/02/21 03:44:13;;;;;;;4.47;1.85;;;;;;;2.24;100.00;98544.16;4961715;28;20057;-60
2022/02/21 03:46:58;;;;;;;3.80;1.90;;;;;;;2.22;100.00;98504.06;4974695;28;20082;-60
2022/02/21 03:49:42;;;;;;;5.30;1.90;;;;;;;2.49;100.00;98550.94;4958602;28;20179;-61
2022/02/21 03:52:27;;;;;;;6.28;1.80;;;;;;;2.36;100.00;98514.44;4983018;28;20049;-69
2022/02/21 03:55:11;;;;;;;6.00;1.70;;;;;;;2.54;100.00;98556.16;4991827;28;20095;-61
2022/02/21 03:57:56;;;;;;;5.18;1.80;;;;;;;2.58;100.00;98532.56;4951239;28;20073;-63
2022/02/21 04:00:40;;;;;;;5.15;1.67;;;;;;;2.52;100.00;98547.44;4985716;28;20505;-59
2022/02/21 04:03:25;;;;;;;3.78;1.67;;;;;;;2.83;100.00;98552.41;4979740;28;20049;-61
2022/02/21 04:06:09;;;;;;;8.27;1.70;;;;;;;2.65;100.00;98538.63;4970870;28;20416;-59
2022/02/21 04:08:54;;;;;;;4.22;1.35;;;;;;;2.82;100.00;98548.06;4987364;28;20057;-59
2022/02/21 04:11:38;;;;;;;7.90;1.65;;;;;;;2.65;100.00;98552.56;4979675;28;20056;-60
2022/02/21 04:14:23;;;;;;;8.77;2.47;;;;;;;2.51;100.00;98548.31;4985496;28;20053;-62
2022/02/21 04:17:07;;;;;;;6.90;1.83;;;;;;;2.49;100.00;98544.88;4977133;28;20046;-62
2022/02/21 04:19:52;;;;;;;5.22;1.70;;;;;;;2.66;100.00;98538.63;4974753;28;20069;-61
2022/02/21 04:22:37;;;;;;;10.70;1.88;;;;;;;2.56;100.00;98543.91;4983481;28;20084;-61
2022/02/21 04:25:22;;;;;;;7.68;2.33;;;;;;;2.42;100.00;98545.78;4980423;28;20092;-60
2022/02/21 04:28:07;;;;;;;4.97;1.40;;;;;;;2.24;100.00;98533.69;4978715;28;20060;-61
2022/02/21 04:30:52;;;;;;;12.93;2.08;;;;;;;2.19;100.00;98525.03;4965542;28;20128;-64
2022/02/21 04:33:36;;;;;;;9.02;1.85;;;;;;;2.51;100.00;98537.84;4974445;28;20569;-60
2022/02/21 04:36:21;;;;;;;6.93;1.63;;;;;;;2.65;100.00;98541.25;4976284;28;20049;-64
2022/02/21 04:39:06;;;;;;;4.25;1.70;;;;;;;2.60;100.00;98554.34;4984793;28;20073;-59
2022/02/21 04:41:52;;;;;;;10.45;1.60;;;;;;;2.75;100.00;98555.97;4961440;28;20580;-57
2022/02/21 04:44:37;;;;;;;8.02;1.50;;;;;;;2.96;100.00;98553.16;4976925;28;20156;-60
2022/02/21 04:47:21;;;;;;;5.75;1.73;;;;;;;3.16;100.00;98551.19;4982069;28;21610;-59
2022/02/21 04:50:08;;;;;;;6.75;1.73;;;;;;;3.06;100.00;98549.56;4980460;28;20085;-57
2022/02/21 04:52:52;;;;;;;5.95;1.95;;;;;;;3.06;100.00;98549.56;4976185;28;20053;-57
2022/02/21 04:55:36;;;;;;;7.97;1.90;;;;;;;2.92;100.00;98557.56;4972897;28;20466;-61
2022/02/21 04:58:21;;;;;;;9.13;1.70;;;;;;;2.80;100.00;98562.00;4979483;28;21554;-62
2022/02/21 05:01:05;;;;;;;4.20;1.60;;;;;;;2.68;100.00;98559.50;4975678;28;20062;-60
2022/02/21 05:03:50;;;;;;;7.97;1.98;;;;;;;2.60;100.00;98562.19;4977112;28;20053;-62
2022/02/21 05:06:34;;;;;;;8.32;1.80;;;;;;;2.68;100.00;98562.13;4975237;28;20045;-60
2022/02/21 05:09:19;;;;;;;6.15;1.70;;;;;;;2.76;100.00;98549.84;4976148;28;20054;-63
2022/02/21 05:12:05;;;;;;;6.22;1.80;;;;;;;2.50;100.00;98504.75;4977339;28;20841;-59
2022/02/21 05:14:49;;;;;;;6.40;1.77;;;;;;;2.82;100.00;98552.41;4976745;28;20053;-62
2022/02/21 05:17:35;;;;;;;10.18;1.80;;;;;;;2.63;100.00;98556.94;4986103;28;20065;-61
2022/02/21 05:20:19;;;;;;;7.32;2.03;;;;;;;2.63;100.00;98554.34;4982274;28;20053;-63
2022/02/21 05:23:04;;;;;;;8.25;2.17;;;;;;;2.63;100.00;98556.06;4976861;28;20057;-62
2022/02/21 05:25:48;;;;;;;5.33;1.70;;;;;;;2.67;100.00;98561.28;4970837;28;20165;-59
2022/02/21 05:28:34;;;;;;;7.95;1.92;;;;;;;2.59;100.00;98563.09;4975388;28;20321;-57
2022/02/21 05:31:23;;;;;;;6.57;1.63;;;;;;;2.60;100.00;98556.97;4971976;28;20061;-61
2022/02/21 05:34:07;;;;;;;5.00;1.73;;;;;;;2.13;100.00;98521.59;4975876;28;20057;-57
2022/02/21 05:36:52;;;;;;;5.78;1.80;;;;;;;2.50;100.00;98557.91;4978148;28;20097;-58
2022/02/21 05:39:37;;;;;;;7.05;2.30;;;;;;;2.54;100.00;98566.63;4961542;28;20081;-60
2022/02/21 05:42:21;;;;;;;8.95;2.25;;;;;;;2.58;100.00;98569.22;4951793;28;20076;-60
2022/02/21 05:45:07;;;;;;;7.30;2.47;;;;;;;2.60;100.00;98569.16;4971746;28;20092;-60
2022/02/21 05:47:52;;;;;;;4.82;2.10;;;;;;;2.80;100.00;98575.97;4976580;28;20058;-60
2022/02/21 05:50:36;;;;;;;9.18;2.17;;;;;;;3.00;100.00;98571.44;4980112;28;20049;-61
2022/02/21 05:53:21;;;;;;;5.20;1.75;;;;;;;2.88;100.00;98568.94;4974038;28;20072;-62
2022/02/21 05:56:06;;;;;;;6.90;1.92;;;;;;;2.93;100.00;98567.13;4979494;28;20048;-57
2022/02/21 05:58:50;;;;;;;7.78;2.10;;;;;;;2.79;100.00;98566.41;4970766;28;20048;-61
2022/02/21 06:01:36;;;;;;;5.25;2.28;;;;;;;2.70;100.00;98576.97;4971134;28;20087;-62
2022/02/21 06:04:24;;;;;;;6.32;2.22;;;;;;;2.70;100.00;98570.84;4976491;28;20104;-58
2022/02/21 06:07:09;;;;;;;7.07;2.50;;;;;;;2.62;100.00;98557.84;4970774;28;20468;-71
2022/02/21 06:09:53;;;;;;;8.90;1.90;;;;;;;2.64;100.00;98532.50;4968171;28;20072;-59
2022/02/21 06:12:38;;;;;;;12.90;2.60;;;;;;;2.93;100.00;98576.75;4973023;28;20058;-59
2022/02/21 06:15:22;;;;;;;5.05;2.10;;;;;;;2.85;100.00;98563.72;4984167;23;20421;-62
2022/02/21 06:18:07;;;;;;;6.75;2.10;;;;;;;2.85;100.00;98566.34;4974610;28;20179;-63
2022/02/21 06:20:52;;;;;;;12.13;2.70;;;;;;;2.75;100.00;98577.78;4975660;28;20149;-60
2022/02/21 06:23:37;;;;;;;7.82;2.13;;;;;;;2.77;100.00;98580.38;4979250;28;20100;-61
2022/02/21 06:26:22;;;;;;;9.25;2.33;;;;;;;2.75;100.00;98575.16;4991366;28;20477;-65
2022/02/21 06:29:06;;;;;;;8.38;2.35;;;;;;;2.82;100.00;98582.09;4978161;28;20177;-60
2022/02/21 06:31:51;;;;;;;6.68;1.98;;;;;;;2.80;100.00;98567.25;4992021;28;20479;-62
2022/02/21 06:34:35;;;;;;;4.28;2.40;;;;;;;2.76;100.00;98544.59;4963142;28;20113;-60
2022/02/21 06:37:20;;;;;;;6.30;2.33;;;;;;;2.83;100.00;98588.16;4994398;28;20052;-59
2022/02/21 06:40:06;;;;;;;7.40;2.40;;;;;;;2.80;100.00;98586.44;4979624;28;20535;-71
2022/02/21 06:42:50;;;;;;;8.82;2.20;;;;;;;2.86;100.00;98552.38;4980955;28;20846;-63
2022/02/21 06:45:35;;;;;;;7.65;2.38;;;;;;;2.90;100.00;98588.13;4997720;28;20053;-72
2022/02/21 06:48:22;;;;;;;7.72;2.50;;;;;;;2.71;100.00;98542.06;4982796;28;20080;-65
2022/02/21 06:51:06;;;;;;;8.63;2.55;;;;;;;2.85;100.00;98573.34;4950851;28;20053;-66
2022/02/21 06:53:51;;;;;;;7.93;2.50;;;;;;;2.99;100.00;98582.81;4997668;28;20092;-71
2022/02/21 06:56:35;;;;;;;8.55;3.03;;;;;;;2.96;100.00;98577.59;4981713;28;20108;-64
2022/02/21 06:59:20;;;;;;;4.82;2.42;;;;;;;3.04;100.00;98562.66;4969847;28;20057;-60
2022/02/21 07:02:05;;;;;;;3.33;2.58;;;;;;;2.94;100.00;98573.25;4993213;28;20052;-66
2022/02/21 07:04:50;;;;;;;6.72;2.20;;;;;;;2.90;100.00;98561.06;4951813;28;20069;-62
2022/02/21 07:07:34;;;;;;;5.60;2.28;;;;;;;3.00;100.00;98589.75;4966259;28;20112;-72
2022/02/21 07:10:19;;;;;;;7.32;2.58;;;;;;;2.60;100.00;98543.88;4978387;28;20057;-67
2022/02/21 07:13:04;;;;;;;8.80;3.22;;;;;;;2.81;100.00;98574.25;4993322;28;20059;-64
2022/02/21 07:15:48;;;;;;;6.97;2.83;;;;;;;2.97;100.00;98588.94;4986002;28;20108;-63
2022/02/21 07:18:37;;;;;;;9.23;3.17;;;;;;;3.40;100.00;98588.47;4972159;28;20080;-69
2022/02/21 07:21:21;;;;;;;5.40;3.15;;;;;;;3.63;100.00;98589.09;4962916;28;20048;-64
2022/02/21 07:24:06;;;;;;;6.07;3.03;;;;;;;3.41;100.00;98571.03;4978768;28;20129;-66
2022/02/21 07:26:51;;;;;;;6.18;2.67;;;;;;;3.22;100.00;98536.31;4991662;28;20053;-65
2022/02/21 07:29:36;;;;;;;6.43;2.72;;;;;;;2.92;100.00;98543.59;4961294;28;20057;-68
2022/02/21 07:32:22;;;;;;;5.07;2.58;;;;;;;2.96;100.00;98506.91;4969369;28;20569;-62
2022/02/21 07:35:07;;;;;;;6.05;2.67;;;;;;;3.43;100.00;98575.38;4973221;28;20133;-64
2022/02/21 07:37:52;;;;;;;7.47;2.72;;;;;;;3.35;100.00;98539.66;4956975;28;20419;-60
2022/02/21 07:40:37;;;;;;;6.07;2.70;;;;;;;3.39;100.00;98521.25;4930922;28;20054;-62
2022/02/21 07:43:21;;;;;;;6.22;2.78;;;;;;;3.93;100.00;98577.38;4984098;28;20419;-66
2022/02/21 07:46:05;;;;;;;4.53;2.30;;;;;;;4.01;100.00;98580.78;4959856;28;20145;-63
2022/02/21 07:48:50;;;;;;;6.00;2.67;;;;;;;3.99;100.00;98582.53;4988096;28;20057;-64
2022/02/21 07:51:34;;;;;;;4.32;2.83;;;;;;;3.79;100.00;98584.53;4985507;28;20121;-60
2022/02/21 07:54:19;;;;;;;8.35;2.53;;;;;;;3.85;100.00;98561.75;4990729;28;20052;-62
2022/02/21 07:57:06;;;;;;;5.80;2.83;;;;;;;3.92;100.00;98567.78;4995523;28;20057;-60
2022/02/21 07:59:51;;;;;;;6.55;2.90;;;;;;;3.57;100.00;98530.66;4977425;28;20111;-62
2022/02/21 08:02:36;;;;;;;4.93;2.58;;;;;;;3.74;100.00;98544.41;4986463;28;20149;-65
2022/02/21 08:05:21;;;;;;;5.75;2.90;;;;;;;4.08;100.00;98567.53;4985252;28;20073;-61
2022/02/21 08:08:09;;;;;;;6.72;2.80;;;;;;;4.44;100.00;98602.91;4968766;28;20057;-63
2022/02/21 08:10:53;;;;;;;5.80;2.90;;;;;;;4.51;100.00;98580.94;4955945;28;20354;-63
2022/02/21 08:13:37;;;;;;;5.93;2.83;;;;;;;3.97;100.00;98501.28;4956730;28;20053;-60
2022/02/21 08:16:22;;;;;;;5.32;2.80;;;;;;;4.13;100.00;98596.34;4974922;28;20559;-61
2022/02/21 08:19:06;;;;;;;8.25;2.85;;;;;;;3.85;100.00;98593.22;4975769;28;20072;-62
2022/02/21 08:21:52;;;;;;;5.65;3.33;;;;;;;4.01;100.00;98592.13;4979845;28;20430;-64
2022/02/21 08:24:36;;;;;;;4.70;2.80;;;;;;;4.22;100.00;98590.97;4948201;28;20147;-60
2022/02/21 08:27:21;;;;;;;6.90;2.80;;;;;;;4.30;100.00;98583.84;4978153;28;20103;-61
2022/02/21 08:30:09;;;;;;;6.00;2.85;;;;;;;4.64;100.00;98592.97;4954408;28;20109;-65
2022/02/21 08:32:54;;;;;;;9.00;2.85;;;;;;;4.32;100.00;98603.94;4955334;28;20146;-63
2022/02/21 08:35:39;;;;;;;7.82;2.80;;;;;;;4.19;100.00;98599.75;4950884;28;20108;-62
2022/02/21 08:38:23;;;;;;;5.95;2.67;;;;;;;4.06;100.00;98582.44;4985888;28;20136;-61
2022/02/21 08:41:10;;;;;;;6.53;2.40;;;;;;;4.13;100.00;98607.72;4979745;28;20065;-64
2022/02/21 08:43:56;;;;;;;7.75;2.67;;;;;;;3.89;100.00;98610.66;4986778;28;20057;-62
2022/02/21 08:46:41;;;;;;;8.90;3.00;;;;;;;3.75;100.00;98588.97;4944115;28;20434;-60
2022/02/21 08:49:25;;;;;;;8.27;3.00;;;;;;;3.63;100.00;98594.34;4966036;28;20057;-62
2022/02/21 08:52:10;;;;;;;6.53;2.50;;;;;;;3.93;100.00;98600.97;4950786;28;20049;-61
2022/02/21 08:54:55;;;;;;;7.55;2.65;;;;;;;3.69;100.00;98556.72;4971091;28;20503;-59
2022/02/21 08:57:39;;;;;;;7.30;3.10;;;;;;;3.91;100.00;98603.63;4967286;28;20161;-61
2022/02/21 09:00:24;;;;;;;3.88;2.75;;;;;;;4.07;100.00;98599.03;4973306;28;20116;-62
2022/02/21 09:03:09;;;;;;;6.82;2.92;;;;;;;3.76;100.00;98558.38;4986218;28;20572;-63
2022/02/21 09:05:54;;;;;;;7.30;3.45;;;;;;;3.96;100.00;98595.69;4967840;28;20052;-64
2022/02/21 09:08:39;;;;;;;7.53;3.25;;;;;;;3.73;100.00;98551.41;4943802;28;20060;-62
2022/02/21 09:11:23;;;;;;;4.45;3.00;;;;;;;3.70;100.00;98551.47;4969323;28;20062;-61
2022/02/21 09:14:07;;;;;;;9.48;3.72;;;;;;;4.23;100.00;98582.19;4973988;28;20053;-61
2022/02/21 09:16:52;;;;;;;10.75;3.63;;;;;;;4.50;100.00;98595.81;4975021;28;20470;-61
2022/02/21 09:19:36;;;;;;;7.10;2.83;;;;;;;4.21;100.00;98589.25;4973196;28;20105;-65
2022/02/21 09:22:21;;;;;;;8.07;2.97;;;;;;;4.21;100.00;98604.97;4988839;28;20156;-62
2022/02/21 09:25:07;;;;;;;12.15;3.63;;;;;;;4.10;100.00;98599.88;4976710;28;20489;-62
2022/02/21 09:27:52;;;;;;;8.60;3.35;;;;;;;3.94;100.00;98611.44;4945204;28;20053;-60
2022/02/21 09:30:37;;;;;;;8.95;3.10;;;;;;;4.13;100.00;98612.09;4951162;28;20061;-62
2022/02/21 09:33:22;;;;;;;10.20;3.25;;;;;;;4.20;100.00;98608.50;4970300;28;20060;-63
2022/02/21 09:36:07;;;;;;;8.10;3.50;;;;;;;4.30;100.00;98602.22;4949274;28;20097;-63
2022/02/21 09:38:52;;;;;;;9.23;3.45;;;;;;;4.31;100.00;98607.44;4977699;28;20050;-66
2022/02/21 09:41:36;;;;;;;7.72;3.60;;;;;;;4.28;100.00;98614.50;4962362;28;20212;-61
2022/02/21 09:44:21;;;;;;;7.75;3.75;;;;;;;4.25;100.00;98618.03;4973833;28;20094;-63
2022/02/21 09:47:06;;;;;;;;;;;;;;;4.23;100.00;98632.03;4935512;28;20152;-64
2022/02/21 09:49:53;;;;;;;6.68;3.50;;;;;;;4.12;100.00;98607.72;4987071;28;19929;-63
2022/02/21 09:52:38;;;;;;;9.63;3.95;;;;;;;4.24;100.00;98618.91;4937263;28;20061;-62
2022/02/21 09:55:22;;;;;;;6.28;3.15;;;;;;;4.68;100.00;98613.88;4970883;28;20530;-64
2022/02/21 09:58:07;;;;;;;6.97;3.22;;;;;;;4.87;100.00;98604.00;4987775;28;20057;-76
2022/02/21 10:00:53;;;;;;;6.47;3.25;;;;;;;5.03;100.00;98610.72;5002008;28;20374;-61
2022/02/21 10:03:37;;;;;;;7.25;3.55;;;;;;;4.92;100.00;98613.50;4972669;28;20061;-62
2022/02/21 10:06:25;;;;;;;5.35;2.97;;;;;;;4.53;100.00;98602.75;4968628;28;20552;-59
2022/02/21 10:09:12;;;;;;;7.03;3.40;;;;;;;4.54;100.00;98608.00;4984784;28;20057;-64
2022/02/21 10:11:58;;;;;;;7.97;3.60;;;;;;;4.49;100.00;98607.19;4978900;28;20101;-60
2022/02/21 10:14:43;;;;;;;9.00;3.35;;;;;;;4.22;100.00;98549.88;4976793;28;20062;-63
2022/02/21 10:17:27;;;;;;;8.18;3.60;;;;;;;4.49;100.00;98594.09;4980672;28;20057;-62
2022/02/21 10:20:12;;;;;;;8.35;3.80;;;;;;;4.27;100.00;98581.25;4980259;28;20049;-62
2022/02/21 10:23:02;;;;;;;6.90;3.80;;;;;;;4.56;100.00;98585.19;4944047;28;20134;-61
2022/02/21 10:26:06;;;;;;;10.55;3.60;;;;;;;4.31;100.00;98580.34;4954865;28;20057;-61
2022/02/21 10:28:51;;;;;;;7.93;3.60;;;;;;;4.00;100.00;98547.56;4983386;28;20053;-63
2022/02/21 10:31:36;;;;;;;7.88;3.80;;;;;;;4.28;100.00;98578.63;4965714;28;20145;-63
2022/02/21 10:34:20;;;;;;;6.97;3.33;;;;;;;4.08;100.00;98546.56;4993113;28;20136;-62
2022/02/21 10:37:07;;;;;;;8.55;3.83;;;;;;;4.27;100.00;98576.03;5002162;28;20153;-61
2022/02/21 10:40:21;;;;;;;7.65;3.75;;;;;;;4.41;100.00;98582.84;4969035;28;20521;-64
2022/02/21 10:43:10;;;;;;;10.90;4.15;;;;;;;4.33;100.00;98584.69;4995808;28;20064;-67
2022/02/21 10:45:55;;;;;;;8.52;3.60;;;;;;;4.31;100.00;98581.22;4974312;28;20072;-62
2022/02/21 10:48:44;;;;;;;10.32;3.97;;;;;;;4.29;100.00;98577.75;4964065;28;20117;-62
2022/02/21 10:51:32;;;;;;;10.63;4.13;;;;;;;4.34;100.00;98573.31;4977485;28;20466;-62
2022/02/21 10:54:17;;;;;;;7.53;4.03;;;;;;;4.45;100.00;98581.00;4992348;28;20061;-61
2022/02/21 10:57:02;;;;;;;8.90;3.78;;;;;;;4.78;100.00;98570.88;4993017;28;20060;-62
2022/02/21 10:59:48;;;;;;;11.57;3.85;;;;;;;5.00;100.00;98566.13;4980000;28;20053;-61
2022/02/21 11:02:33;;;;;;;9.38;3.80;;;;;;;4.69;100.00;98522.88;4989195;28;20052;-61
2022/02/21 11:05:19;;;;;;;7.78;3.38;;;;;;;5.18;100.00;98557.91;4939105;28;20093;-62
2022/02/21 11:08:06;;;;;;;8.30;3.97;;;;;;;6.12;100.00;98522.69;4969529;28;20050;-60
2022/02/21 11:10:59;;;;;;;10.93;3.38;;;;;;;7.72;100.00;98565.19;4953312;28;20100;-65
2022/02/21 11:13:46;;;;;;;11.05;3.50;;;;;;;8.35;100.00;98552.78;4965317;28;20056;-63
2022/02/21 11:16:34;;;;;;;8.35;4.10;;;;;;;7.90;100.00;98556.72;4986302;28;20121;-61
2022/02/21 11:19:19;;;;;;;7.32;3.65;;;;;;;7.22;100.00;98476.03;4983697;28;20057;-64
2022/02/21 11:22:05;;;;;;;7.65;3.45;;;;;;;7.08;100.00;98565.16;4940841;28;20116;-61
2022/02/21 11:25:02;;;;;;;9.18;3.80;;;;;;;7.49;100.00;98544.72;4952978;28;20096;-61
2022/02/21 11:27:59;;;;;;;5.35;3.17;;;;;;;9.33;100.00;98534.53;4993599;28;20057;-61
2022/02/21 11:30:47;;;;;;;5.45;3.22;;;;;;;9.80;100.00;98568.09;4968252;28;20157;-61
2022/02/21 11:33:52;;;;;;;6.45;2.83;;;;;;;8.97;100.00;98564.84;4953654;28;20048;-62
2022/02/21 11:36:42;;;;;;;12.52;3.47;;;;;;;8.60;100.00;98564.31;4996534;28;20173;-65
2022/02/21 11:39:33;;;;;;;8.07;4.15;;;;;;;10.14;100.00;98558.06;4964492;28;20057;-61
2022/02/21 11:42:27;;;;;;;7.30;4.20;;;;;;;11.24;100.00;98550.94;4963720;28;20105;-63
2022/02/21 11:45:24;;;;;;;7.50;4.22;;;;;;;11.04;100.00;98562.38;4992027;28;20052;-61
2022/02/21 11:48:13;;;;;;;9.38;3.33;;;;;;;9.82;100.00;98554.81;4978178;28;20053;-64
2022/02/21 11:51:29;;;;;;;7.82;4.05;;;;;;;8.63;100.00;98562.44;4965860;28;20050;-61
2022/02/21 11:54:14;;;;;;;8.10;3.53;;;;;;;7.26;100.00;98546.22;4978717;28;20065;-63
2022/02/21 11:56:59;;;;;;;6.13;3.60;;;;;;;6.61;100.00;98562.81;4995638;28;20057;-62
2022/02/21 11:59:44;;;;;;;7.40;3.65;;;;;;;6.24;100.00;98491.72;4955512;28;20045;-61
2022/02/21 12:02:29;;;;;;;7.22;3.65;;;;;;;6.13;100.00;98538.47;4979259;28;20069;-62
2022/02/21 12:05:21;;;;;;;6.40;3.70;;;;;;;6.20;100.00;98558.47;4984277;28;20115;-63
2022/02/21 12:08:31;;;;;;;7.82;4.07;;;;;;;5.92;100.00;98553.84;4962025;28;20137;-62
2022/02/21 12:11:19;;;;;;;5.07;3.60;;;;;;;5.91;100.00;98557.38;4996456;28;20048;-62
2022/02/21 12:14:10;;;;;;;7.32;3.42;;;;;;;5.86;100.00;98559.25;4995686;28;20108;-64
2022/02/21 12:17:02;;;;;;;6.40;2.83;;;;;;;5.94;100.00;98555.56;4986993;28;20525;-63
2022/02/21 12:19:47;;;;;;;8.32;3.17;;;;;;;6.36;100.00;98549.34;4989135;28;20678;-63
2022/02/21 12:22:33;;;;;;;5.75;3.20;;;;;;;6.29;100.00;98549.53;4993783;28;20413;-60
2022/02/21 12:25:19;;;;;;;6.45;3.38;;;;;;;6.50;100.00;98556.94;4987246;28;20455;-60
2022/02/21 12:28:21;;;;;;;6.68;3.40;;;;;;;6.47;100.00;98517.50;4971389;28;20394;-61
2022/02/21 12:31:06;;;;;;;5.47;3.60;;;;;;;6.21;100.00;98552.31;4984062;28;20081;-60
2022/02/21 12:33:56;;;;;;;5.30;2.83;;;;;;;6.38;100.00;98538.78;4980838;28;20045;-63
2022/02/21 12:36:43;;;;;;;5.43;2.70;;;;;;;6.19;100.00;98555.88;4985032;28;20149;-58
2022/02/21 12:39:33;;;;;;;6.18;2.97;;;;;;;5.87;100.00;98555.72;4971024;28;20073;-60
2022/02/21 12:42:19;;;;;;;9.30;3.38;;;;;;;5.74;100.00;98548.94;4984629;28;20418;-60
2022/02/21 12:45:04;;;;;;;6.30;3.20;;;;;;;5.51;100.00;98533.63;4988498;28;20084;-62
2022/02/21 12:47:56;;;;;;;6.45;2.92;;;;;;;5.45;100.00;98540.78;4962324;28;20462;-59
2022/02/21 12:50:41;;;;;;;5.47;2.67;;;;;;;5.28;100.00;98548.97;4970722;28;20081;-61
2022/02/21 12:53:27;;;;;;;3.90;2.63;;;;;;;5.10;100.00;98544.03;4956941;28;20121;-65
2022/02/21 12:56:11;;;;;;;4.60;2.50;;;;;;;4.76;100.00;98511.41;4983641;28;20116;-59
2022/02/21 12:58:57;;;;;;;5.05;2.67;;;;;;;4.99;100.00;98551.25;4982596;28;20141;-62
2022/02/21 13:01:42;;;;;;;9.80;3.03;;;;;;;5.07;100.00;98544.97;4970014;28;20520;-59